createdAt,value
2019-03-30T00:01:38.204Z,9.30
2019-03-30T00:04:06.640Z,9.30
2019-03-30T00:06:35.072Z,9.30
2019-03-30T00:09:05.821Z,9.30
2019-03-30T00:11:34.245Z,9.20
2019-03-30T00:14:02.672Z,9.20
2019-03-30T00:16:31.120Z,9.20
2019-03-30T00:18:59.546Z,9.20
2019-03-30T00:21:27.992Z,9.20
2019-03-30T00:23:56.429Z,9.10
2019-03-30T00:26:24.865Z,9.10
2019-03-30T00:28:53.327Z,9.10
2019-03-30T00:31:21.771Z,9.10
2019-03-30T00:33:50.208Z,9.00
2019-03-30T00:36:18.749Z,9.00
2019-03-30T00:38:47.361Z,9.00
2019-03-30T00:41:15.804Z,9.00
2019-03-30T00:43:44.224Z,9.00
2019-03-30T00:46:12.671Z,8.90
2019-03-30T00:48:45.997Z,9.00
2019-03-30T00:51:15.824Z,9.00
2019-03-30T00:53:45.783Z,8.90
2019-03-30T00:56:14.364Z,8.90
2019-03-30T00:58:42.806Z,8.90
2019-03-30T01:01:11.439Z,8.90
2019-03-30T01:03:39.930Z,8.80
2019-03-30T01:06:08.400Z,8.80
2019-03-30T01:08:36.837Z,8.80
2019-03-30T01:11:05.309Z,8.70
2019-03-30T01:13:34.098Z,8.70
2019-03-30T01:16:02.541Z,8.70
2019-03-30T01:18:30.978Z,8.60
2019-03-30T01:20:59.416Z,8.60
2019-03-30T01:23:27.844Z,8.60
2019-03-30T01:25:56.300Z,8.60
2019-03-30T01:28:24.837Z,8.60
2019-03-30T01:30:53.272Z,8.60
2019-03-30T01:33:21.718Z,8.60
2019-03-30T01:35:50.163Z,8.60
2019-03-30T01:38:18.666Z,8.60
2019-03-30T01:40:47.303Z,8.60
2019-03-30T01:43:15.826Z,8.60
2019-03-30T01:45:44.261Z,8.50
2019-03-30T01:48:12.715Z,8.60
2019-03-30T01:50:41.142Z,8.50
2019-03-30T01:53:09.592Z,8.50
2019-03-30T01:55:38.028Z,8.50
2019-03-30T01:58:06.489Z,8.50
2019-03-30T02:00:35.094Z,8.40
2019-03-30T02:03:03.565Z,8.40
2019-03-30T02:05:32.010Z,8.40
2019-03-30T02:08:00.445Z,8.40
2019-03-30T02:10:40.655Z,8.40
2019-03-30T02:13:09.446Z,8.40
2019-03-30T02:15:38.269Z,8.40
2019-03-30T02:18:07.256Z,8.40
2019-03-30T02:20:43.405Z,8.40
2019-03-30T02:23:12.117Z,8.40
2019-03-30T02:25:40.787Z,8.30
2019-03-30T02:28:09.496Z,8.30
2019-03-30T02:30:38.309Z,8.20
2019-03-30T02:33:07.173Z,8.30
2019-03-30T02:35:35.925Z,8.30
2019-03-30T02:38:04.516Z,8.20
2019-03-30T02:40:33.010Z,8.20
2019-03-30T02:43:01.499Z,8.30
2019-03-30T02:45:29.980Z,8.20
2019-03-30T02:47:58.444Z,8.20
2019-03-30T02:50:26.933Z,8.20
2019-03-30T02:52:55.408Z,8.20
2019-03-30T02:55:24.297Z,8.10
2019-03-30T02:57:52.726Z,8.10
2019-03-30T03:00:21.433Z,8.10
2019-03-30T03:02:49.865Z,8.10
2019-03-30T03:05:18.591Z,8.10
2019-03-30T03:07:47.021Z,8.10
2019-03-30T03:10:16.113Z,8.10
2019-03-30T03:12:44.535Z,8.00
2019-03-30T03:15:13.513Z,8.00
2019-03-30T03:17:43.096Z,8.00
2019-03-30T03:20:13.703Z,8.00
2019-03-30T03:22:42.171Z,8.00
2019-03-30T03:25:11.338Z,8.00
2019-03-30T03:27:39.765Z,8.00
2019-03-30T03:30:08.701Z,8.00
2019-03-30T03:32:37.510Z,8.00
2019-03-30T03:35:06.201Z,8.00
2019-03-30T03:37:44.490Z,8.00
2019-03-30T03:40:07.722Z,8.00
2019-03-30T03:42:36.303Z,7.90
2019-03-30T03:45:07.622Z,7.80
2019-03-30T03:47:36.321Z,7.80
2019-03-30T03:50:05.799Z,7.80
2019-03-30T03:56:15.501Z,7.80
2019-03-30T03:58:45.709Z,7.80
2019-03-30T04:01:17.059Z,7.80
2019-03-30T04:03:47.617Z,7.80
2019-03-30T04:06:17.506Z,7.90
2019-03-30T04:08:47.817Z,7.80
2019-03-30T04:11:17.055Z,7.90
2019-03-30T04:13:48.791Z,7.70
2019-03-30T04:16:17.239Z,7.70
2019-03-30T04:18:48.315Z,7.80
2019-03-30T04:21:16.019Z,7.80
2019-03-30T04:23:44.461Z,7.80
2019-03-30T04:26:13.090Z,7.80
2019-03-30T04:28:44.153Z,7.80
2019-03-30T04:31:12.609Z,7.80
2019-03-30T04:33:41.173Z,7.80
2019-03-30T04:36:09.654Z,7.80
2019-03-30T04:38:38.162Z,7.80
2019-03-30T04:41:06.612Z,7.80
2019-03-30T04:43:35.045Z,7.70
2019-03-30T04:46:03.658Z,7.70
2019-03-30T04:48:32.150Z,7.80
2019-03-30T04:51:00.606Z,7.70
2019-03-30T04:53:29.047Z,7.80
2019-03-30T04:55:57.486Z,7.80
2019-03-30T04:58:25.994Z,7.80
2019-03-30T05:00:54.449Z,7.70
2019-03-30T05:03:22.955Z,7.70
2019-03-30T05:05:51.382Z,7.70
2019-03-30T05:08:19.822Z,7.70
2019-03-30T05:10:48.253Z,7.70
2019-03-30T05:13:16.696Z,7.70
2019-03-30T05:15:45.162Z,7.70
2019-03-30T05:18:13.665Z,7.60
2019-03-30T05:20:42.366Z,7.60
2019-03-30T05:23:10.829Z,7.60
2019-03-30T05:25:39.267Z,7.70
2019-03-30T05:28:07.705Z,7.70
2019-03-30T05:30:36.175Z,7.70
2019-03-30T05:33:07.794Z,7.70
2019-03-30T05:35:38.084Z,7.70
2019-03-30T05:38:10.219Z,7.60
2019-03-30T05:40:38.778Z,7.60
2019-03-30T05:43:07.685Z,7.70
2019-03-30T05:45:36.174Z,7.70
2019-03-30T05:48:04.991Z,7.70
2019-03-30T05:50:40.273Z,7.70
2019-03-30T05:53:04.217Z,7.80
2019-03-30T05:55:32.645Z,7.70
2019-03-30T05:58:01.105Z,7.70
2019-03-30T06:00:29.668Z,7.70
2019-03-30T06:02:58.316Z,7.60
2019-03-30T06:05:26.908Z,7.70
2019-03-30T06:07:55.428Z,7.70
2019-03-30T06:10:23.861Z,7.70
2019-03-30T06:12:52.313Z,7.80
2019-03-30T06:15:20.834Z,7.80
2019-03-30T06:17:49.294Z,7.80
2019-03-30T06:20:17.758Z,7.70
2019-03-30T06:22:46.241Z,7.70
2019-03-30T06:25:14.718Z,7.70
2019-03-30T06:27:43.146Z,7.60
2019-03-30T06:30:19.713Z,7.60
2019-03-30T06:32:48.157Z,7.80
2019-03-30T06:35:16.886Z,8.00
2019-03-30T06:37:45.441Z,8.30
2019-03-30T06:40:14.495Z,8.30
2019-03-30T06:42:42.947Z,8.20
2019-03-30T06:45:11.826Z,8.40
2019-03-30T06:47:40.258Z,8.40
2019-03-30T06:50:09.458Z,8.50
2019-03-30T06:52:41.116Z,8.70
2019-03-30T06:55:08.426Z,8.80
2019-03-30T06:57:36.853Z,8.80
2019-03-30T07:00:07.046Z,9.00
2019-03-30T07:02:36.321Z,9.20
2019-03-30T07:05:07.401Z,9.40
2019-03-30T07:07:37.986Z,9.60
2019-03-30T07:10:07.722Z,9.60
2019-03-30T07:12:39.235Z,9.60
2019-03-30T07:15:08.900Z,9.70
2019-03-30T07:17:47.773Z,10.00
2019-03-30T07:20:27.879Z,10.40
2019-03-30T07:23:10.665Z,10.20
2019-03-30T07:25:27.421Z,10.40
2019-03-30T07:27:56.130Z,10.90
2019-03-30T07:30:24.759Z,11.00
2019-03-30T07:32:53.905Z,11.10
2019-03-30T07:35:22.732Z,11.40
2019-03-30T07:37:51.166Z,11.30
2019-03-30T07:40:19.639Z,11.20
2019-03-30T07:42:48.298Z,11.00
2019-03-30T07:45:17.465Z,11.30
2019-03-30T07:47:45.925Z,11.60
2019-03-30T07:50:15.191Z,11.50
2019-03-30T07:52:43.685Z,11.80
2019-03-30T07:55:12.517Z,12.10
2019-03-30T07:57:41.025Z,12.30
2019-03-30T08:00:10.325Z,12.50
2019-03-30T08:02:38.842Z,12.40
2019-03-30T08:05:07.541Z,12.30
2019-03-30T08:07:36.218Z,12.20
2019-03-30T08:10:06.132Z,12.20
2019-03-30T08:12:34.573Z,12.40
2019-03-30T08:15:03.789Z,12.30
2019-03-30T08:17:32.252Z,12.50
2019-03-30T08:20:02.237Z,12.70
2019-03-30T08:22:30.689Z,13.30
2019-03-30T08:24:59.129Z,13.80
2019-03-30T08:27:27.573Z,14.20
2019-03-30T08:29:56.001Z,13.90
2019-03-30T08:32:24.468Z,14.00
2019-03-30T08:34:52.912Z,14.70
2019-03-30T08:37:21.428Z,14.90
2019-03-30T08:39:50.332Z,14.40
2019-03-30T08:42:19.655Z,14.50
2019-03-30T08:44:48.337Z,14.20
2019-03-30T08:47:16.917Z,14.50
2019-03-30T08:49:45.352Z,14.40
2019-03-30T08:52:13.800Z,14.50
2019-03-30T08:54:42.231Z,14.80
2019-03-30T08:57:10.674Z,14.50
2019-03-30T08:59:39.113Z,14.70
2019-03-30T09:02:07.770Z,14.70
2019-03-30T09:04:36.293Z,14.50
2019-03-30T09:07:04.731Z,14.50
2019-03-30T09:09:33.186Z,14.70
2019-03-30T09:12:01.626Z,14.60
2019-03-30T09:14:30.690Z,14.60
2019-03-30T09:16:59.641Z,14.90
2019-03-30T09:19:28.490Z,14.70
2019-03-30T09:21:56.981Z,15.00
2019-03-30T09:24:25.449Z,14.80
2019-03-30T09:26:55.439Z,15.10
2019-03-30T09:29:23.892Z,15.00
2019-03-30T09:31:52.342Z,15.40
2019-03-30T09:34:20.789Z,15.20
2019-03-30T09:36:49.348Z,14.70
2019-03-30T09:39:18.290Z,14.60
2019-03-30T09:41:46.742Z,14.60
2019-03-30T09:44:15.201Z,14.50
2019-03-30T09:46:43.769Z,14.60
2019-03-30T09:49:12.214Z,14.60
2019-03-30T09:51:40.671Z,14.50
2019-03-30T09:54:22.783Z,14.80
2019-03-30T09:56:39.278Z,14.90
2019-03-30T09:59:07.729Z,15.00
2019-03-30T10:01:36.164Z,14.80
2019-03-30T10:04:04.718Z,14.80
2019-03-30T10:06:34.559Z,14.70
2019-03-30T10:09:03.918Z,14.80
2019-03-30T10:11:32.367Z,14.90
2019-03-30T10:14:00.838Z,14.80
2019-03-30T10:16:29.269Z,14.90
2019-03-30T10:18:57.837Z,14.90
2019-03-30T10:21:26.438Z,15.00
2019-03-30T10:23:56.509Z,15.00
2019-03-30T10:26:25.052Z,15.10
2019-03-30T10:28:53.490Z,15.20
2019-03-30T10:31:21.973Z,15.30
2019-03-30T10:33:50.466Z,15.30
2019-03-30T10:36:18.909Z,15.30
2019-03-30T10:38:47.345Z,15.20
2019-03-30T10:41:15.926Z,15.50
2019-03-30T10:43:44.455Z,15.20
2019-03-30T10:46:12.906Z,15.30
2019-03-30T10:48:41.338Z,15.50
2019-03-30T10:51:09.910Z,15.60
2019-03-30T10:53:38.377Z,15.70
2019-03-30T10:56:06.813Z,15.80
2019-03-30T10:58:37.739Z,15.60
2019-03-30T11:01:06.345Z,15.80
2019-03-30T11:03:34.781Z,15.80
2019-03-30T11:06:03.228Z,15.90
2019-03-30T11:08:31.670Z,15.80
2019-03-30T11:11:00.150Z,15.90
2019-03-30T11:13:28.574Z,16.00
2019-03-30T11:16:00.061Z,16.00
2019-03-30T11:18:28.567Z,16.00
2019-03-30T11:20:57.015Z,16.00
2019-03-30T11:23:25.566Z,15.80
2019-03-30T11:25:54.253Z,16.00
2019-03-30T11:28:22.685Z,16.00
2019-03-30T11:30:51.129Z,15.90
2019-03-30T11:33:19.586Z,16.10
2019-03-30T11:35:48.035Z,16.20
2019-03-30T11:38:17.852Z,16.20
2019-03-30T11:40:46.359Z,16.30
2019-03-30T11:43:14.800Z,16.40
2019-03-30T11:45:43.262Z,16.30
2019-03-30T11:48:11.729Z,16.40
2019-03-30T11:50:43.190Z,16.40
2019-03-30T11:53:11.797Z,16.60
2019-03-30T11:55:41.022Z,16.80
2019-03-30T11:58:09.501Z,16.80
2019-03-30T12:00:38.047Z,16.80
2019-03-30T12:03:07.813Z,16.80
2019-03-30T12:05:36.430Z,16.70
2019-03-30T12:08:05.133Z,16.90
2019-03-30T12:10:35.217Z,16.80
2019-03-30T12:13:03.664Z,16.80
2019-03-30T12:15:32.100Z,16.60
2019-03-30T12:18:00.622Z,16.70
2019-03-30T12:20:29.056Z,16.70
2019-03-30T12:22:57.587Z,16.90
2019-03-30T12:25:35.404Z,16.90
2019-03-30T12:27:56.209Z,16.80
2019-03-30T12:30:24.649Z,16.70
2019-03-30T12:32:53.097Z,16.80
2019-03-30T12:35:21.554Z,16.80
2019-03-30T12:37:50.004Z,16.60
2019-03-30T12:40:18.638Z,16.70
2019-03-30T12:42:47.097Z,16.70
2019-03-30T12:45:15.991Z,16.80
2019-03-30T12:47:44.429Z,16.50
2019-03-30T12:50:15.410Z,16.60
2019-03-30T12:52:43.935Z,16.50
2019-03-30T12:55:12.672Z,16.50
2019-03-30T12:57:41.173Z,16.70
2019-03-30T13:00:11.187Z,16.70
2019-03-30T13:02:39.923Z,16.80
2019-03-30T13:05:08.920Z,17.00
2019-03-30T13:07:37.353Z,17.10
2019-03-30T13:10:07.153Z,17.10
2019-03-30T13:12:35.584Z,17.00
2019-03-30T13:15:06.361Z,17.20
2019-03-30T13:17:36.393Z,17.30
2019-03-30T13:20:06.818Z,17.50
2019-03-30T13:22:35.267Z,17.50
2019-03-30T13:25:04.486Z,17.60
2019-03-30T13:27:32.944Z,17.50
2019-03-30T13:30:01.589Z,17.60
2019-03-30T13:32:30.020Z,17.60
2019-03-30T13:34:58.470Z,17.50
2019-03-30T13:37:26.911Z,17.60
2019-03-30T13:39:58.324Z,17.70
2019-03-30T13:42:26.765Z,17.60
2019-03-30T13:44:55.235Z,17.70
2019-03-30T13:47:23.839Z,17.70
2019-03-30T13:49:52.353Z,17.70
2019-03-30T13:52:20.786Z,17.70
2019-03-30T13:54:49.233Z,17.50
2019-03-30T13:57:17.666Z,17.60
2019-03-30T13:59:46.105Z,17.60
2019-03-30T14:02:14.550Z,17.70
2019-03-30T14:04:42.983Z,18.00
2019-03-30T14:07:11.413Z,18.20
2019-03-30T14:09:39.920Z,18.10
2019-03-30T14:12:08.370Z,18.00
2019-03-30T14:14:36.814Z,18.00
2019-03-30T14:17:05.258Z,17.90
2019-03-30T14:19:33.690Z,18.00
2019-03-30T14:22:02.433Z,17.70
2019-03-30T14:24:30.869Z,17.70
2019-03-30T14:26:59.356Z,17.80
2019-03-30T14:29:27.856Z,18.00
2019-03-30T14:31:56.337Z,18.10
2019-03-30T14:34:24.773Z,18.30
2019-03-30T14:36:53.213Z,18.40
2019-03-30T14:39:21.718Z,18.10
2019-03-30T14:41:50.156Z,17.80
2019-03-30T14:44:18.669Z,17.90
2019-03-30T14:46:47.115Z,18.10
2019-03-30T14:49:15.544Z,18.50
2019-03-30T14:51:43.993Z,18.20
2019-03-30T14:54:12.421Z,18.70
2019-03-30T14:56:45.781Z,18.70
2019-03-30T14:59:14.257Z,18.80
2019-03-30T15:01:43.559Z,18.20
2019-03-30T15:04:14.381Z,18.30
2019-03-30T15:06:44.490Z,18.30
2019-03-30T15:09:12.925Z,18.00
2019-03-30T15:11:43.877Z,17.80
2019-03-30T15:14:12.311Z,17.60
2019-03-30T15:16:40.749Z,17.70
2019-03-30T15:19:09.187Z,17.60
2019-03-30T15:21:38.628Z,17.60
2019-03-30T15:24:07.062Z,17.80
2019-03-30T15:26:35.503Z,18.00
2019-03-30T15:29:04.081Z,18.00
2019-03-30T15:31:32.550Z,17.80
2019-03-30T15:34:01.036Z,17.90
2019-03-30T15:36:29.495Z,17.80
2019-03-30T15:38:57.933Z,17.70
2019-03-30T15:41:26.381Z,17.60
2019-03-30T15:43:54.811Z,17.60
2019-03-30T15:46:23.286Z,17.60
2019-03-30T15:48:51.722Z,17.50
2019-03-30T15:51:20.158Z,17.30
2019-03-30T15:53:50.051Z,17.40
2019-03-30T15:56:18.489Z,17.40
2019-03-30T15:58:46.939Z,17.40
2019-03-30T16:01:15.376Z,17.40
2019-03-30T16:03:45.361Z,17.50
2019-03-30T16:06:13.803Z,17.50
2019-03-30T16:08:42.288Z,17.50
2019-03-30T16:11:10.905Z,17.60
2019-03-30T16:13:39.525Z,17.70
2019-03-30T16:16:07.969Z,17.50
2019-03-30T16:18:36.409Z,17.50
2019-03-30T16:21:04.917Z,17.80
2019-03-30T16:23:33.368Z,17.70
2019-03-30T16:26:01.805Z,17.60
2019-03-30T16:28:30.382Z,17.50
2019-03-30T16:30:58.815Z,17.40
2019-03-30T16:33:27.259Z,17.50
2019-03-30T16:35:56.377Z,17.60
2019-03-30T16:38:24.827Z,17.60
2019-03-30T16:40:53.488Z,17.40
2019-03-30T16:43:21.942Z,17.40
2019-03-30T16:45:50.391Z,17.50
2019-03-30T16:48:19.009Z,17.40
2019-03-30T16:50:47.515Z,17.30
2019-03-30T16:53:17.972Z,17.30
2019-03-30T16:55:46.402Z,17.40
2019-03-30T16:58:14.854Z,17.30
2019-03-30T17:00:55.606Z,17.50
2019-03-30T17:03:13.447Z,17.40
2019-03-30T17:05:41.916Z,17.30
2019-03-30T17:08:10.422Z,17.30
2019-03-30T17:10:40.367Z,17.20
2019-03-30T17:13:09.227Z,17.10
2019-03-30T17:15:37.749Z,17.20
2019-03-30T17:18:06.182Z,17.30
2019-03-30T17:20:34.628Z,17.20
2019-03-30T17:23:04.213Z,17.10
2019-03-30T17:25:32.692Z,17.10
2019-03-30T17:28:01.984Z,17.00
2019-03-30T17:30:30.440Z,16.90
2019-03-30T17:32:58.883Z,16.80
2019-03-30T17:35:27.324Z,16.50
2019-03-30T17:37:55.773Z,16.10
2019-03-30T17:40:24.283Z,15.80
2019-03-30T17:42:52.834Z,15.60
2019-03-30T17:45:21.377Z,15.50
2019-03-30T17:47:49.814Z,15.40
2019-03-30T17:50:18.532Z,15.50
2019-03-30T17:52:48.133Z,15.60
2019-03-30T17:55:16.583Z,15.50
2019-03-30T17:57:45.011Z,15.30
2019-03-30T18:00:17.541Z,15.50
2019-03-30T18:02:45.973Z,15.30
2019-03-30T18:05:14.426Z,15.20
2019-03-30T18:07:42.877Z,15.30
2019-03-30T18:10:11.616Z,15.30
2019-03-30T18:12:41.719Z,15.10
2019-03-30T18:15:10.902Z,14.90
2019-03-30T18:17:39.345Z,14.80
2019-03-30T18:20:07.868Z,14.70
2019-03-30T18:22:36.310Z,14.30
2019-03-30T18:25:06.202Z,14.00
2019-03-30T18:27:34.652Z,13.90
2019-03-30T18:30:03.554Z,13.90
2019-03-30T18:32:32.265Z,13.90
2019-03-30T18:35:00.803Z,13.90
2019-03-30T18:37:29.890Z,13.80
2019-03-30T18:39:58.606Z,13.70
2019-03-30T18:42:27.323Z,13.70
2019-03-30T18:44:56.597Z,13.70
2019-03-30T18:47:25.067Z,13.70
2019-03-30T18:49:53.557Z,13.70
2019-03-30T18:52:22.086Z,13.80
2019-03-30T18:54:52.545Z,13.70
2019-03-30T18:57:20.996Z,13.70
2019-03-30T18:59:49.426Z,13.60
2019-03-30T19:02:19.367Z,13.60
2019-03-30T19:04:48.169Z,13.60
2019-03-30T19:07:16.611Z,13.40
2019-03-30T19:09:45.057Z,13.40
2019-03-30T19:12:13.575Z,13.30
2019-03-30T19:14:42.013Z,13.30
2019-03-30T19:17:10.485Z,13.10
2019-03-30T19:19:38.996Z,13.00
2019-03-30T19:22:07.478Z,13.00
2019-03-30T19:24:35.954Z,13.00
2019-03-30T19:27:04.599Z,12.90
2019-03-30T19:29:33.049Z,12.70
2019-03-30T19:32:01.617Z,12.60
2019-03-30T19:34:30.054Z,12.30
2019-03-30T19:36:58.525Z,12.30
2019-03-30T19:39:26.941Z,12.20
2019-03-30T19:41:55.445Z,12.10
2019-03-30T19:44:23.897Z,12.00
2019-03-30T19:46:52.341Z,12.00
2019-03-30T19:49:20.800Z,12.00
2019-03-30T19:51:49.261Z,12.00
2019-03-30T19:54:17.721Z,11.90
2019-03-30T19:56:46.171Z,11.90
2019-03-30T19:59:14.616Z,12.00
2019-03-30T20:01:43.058Z,11.90
2019-03-30T20:04:11.510Z,11.90
2019-03-30T20:06:40.213Z,11.90
2019-03-30T20:09:09.413Z,11.80
2019-03-30T20:11:38.095Z,11.80
2019-03-30T20:14:06.581Z,11.70
2019-03-30T20:16:35.585Z,11.70
2019-03-30T20:19:12.087Z,11.70
2019-03-30T20:21:34.334Z,11.60
2019-03-30T20:24:02.770Z,11.50
2019-03-30T20:26:31.213Z,11.30
2019-03-30T20:28:59.764Z,11.00
2019-03-30T20:31:29.425Z,11.00
2019-03-30T20:33:57.968Z,11.00
2019-03-30T20:36:26.485Z,10.90
2019-03-30T20:38:54.936Z,10.80
2019-03-30T20:41:23.381Z,10.70
2019-03-30T20:43:51.822Z,10.60
2019-03-30T20:46:20.502Z,10.50
2019-03-30T20:48:48.975Z,10.40
2019-03-30T20:51:17.416Z,10.40
2019-03-30T20:53:45.902Z,10.30
2019-03-30T20:56:14.352Z,10.40
2019-03-30T20:58:42.808Z,10.30
2019-03-30T21:01:11.271Z,10.20
2019-03-30T21:03:39.772Z,10.10
2019-03-30T21:06:08.214Z,10.00
2019-03-30T21:08:36.657Z,10.00
2019-03-30T21:11:05.143Z,9.90
2019-03-30T21:13:33.635Z,10.00
2019-03-30T21:16:02.086Z,10.10
2019-03-30T21:18:30.533Z,10.00
2019-03-30T21:20:58.983Z,9.90
2019-03-30T21:23:27.417Z,10.00
2019-03-30T21:25:55.909Z,9.90
2019-03-30T21:28:24.354Z,9.90
2019-03-30T21:30:52.845Z,9.90
2019-03-30T21:33:21.346Z,9.70
2019-03-30T21:35:49.781Z,9.80
2019-03-30T21:38:18.232Z,9.80
2019-03-30T21:40:46.746Z,9.50
2019-03-30T21:43:15.183Z,9.50
2019-03-30T21:45:43.633Z,9.50
2019-03-30T21:48:12.135Z,9.60
2019-03-30T21:50:40.577Z,9.60
2019-03-30T21:53:09.010Z,9.60
2019-03-30T21:55:38.978Z,9.50
2019-03-30T21:58:07.426Z,9.40
2019-03-30T22:00:40.137Z,9.40
2019-03-30T22:03:08.725Z,9.30
2019-03-30T22:05:37.170Z,9.40
2019-03-30T22:08:06.957Z,9.40
2019-03-30T22:10:35.398Z,9.40
2019-03-30T22:13:04.611Z,9.40
2019-03-30T22:15:33.071Z,9.20
2019-03-30T22:18:01.677Z,9.10
2019-03-30T22:20:30.126Z,9.10
2019-03-30T22:22:58.711Z,9.10
2019-03-30T22:25:27.156Z,9.10
2019-03-30T22:27:55.693Z,9.10
2019-03-30T22:30:25.416Z,9.10
2019-03-30T22:32:54.050Z,9.00
2019-03-30T22:35:22.501Z,9.00
2019-03-30T22:37:50.961Z,9.00
2019-03-30T22:40:19.394Z,8.90
2019-03-30T22:42:49.250Z,8.80
2019-03-30T22:45:17.835Z,8.70
2019-03-30T22:47:46.373Z,8.60
2019-03-30T22:50:16.712Z,8.50
2019-03-30T22:52:45.236Z,8.50
2019-03-30T22:55:13.826Z,8.60
2019-03-30T22:57:42.434Z,8.60
2019-03-30T23:00:19.448Z,8.50
2019-03-30T23:02:48.180Z,8.50
2019-03-30T23:05:18.274Z,8.40
2019-03-30T23:07:46.776Z,8.50
2019-03-30T23:10:15.227Z,8.50
2019-03-30T23:12:43.699Z,8.50
2019-03-30T23:15:12.198Z,8.30
2019-03-30T23:17:40.645Z,8.20
2019-03-30T23:20:09.161Z,8.20
2019-03-30T23:22:37.676Z,8.30
2019-03-30T23:25:07.259Z,8.20
2019-03-30T23:27:35.732Z,8.20
2019-03-30T23:30:06.921Z,8.30
2019-03-30T23:32:36.679Z,8.30
2019-03-30T23:35:06.124Z,8.30
2019-03-30T23:37:34.656Z,8.10
2019-03-30T23:40:03.870Z,8.20
2019-03-30T23:42:32.350Z,8.20
2019-03-30T23:45:03.978Z,8.10
2019-03-30T23:47:32.600Z,8.20
2019-03-30T23:50:01.057Z,8.30
2019-03-30T23:52:29.505Z,8.30
2019-03-30T23:54:57.953Z,8.30
2019-03-30T23:57:26.385Z,8.40
2019-03-30T23:59:54.837Z,8.50
